CMB861 Details

Departure: RAFO Thumrait (OOTH)
Arrival: Diego Garcia (FJDG) at N/A
Route: KIVEL UM551 ANGAL MOXET L516 NKW
Notes: USTRANSCOM CONTRACT FLIGHT


Current Weather Information
FJDG 190555Z 10011KT 9999 FEW025 SCT250 32/25 A2988 RMK SLP115 8/102 T03240247 10324 20275 50000